sensor_id;sensor_type;location;lat;lon;timestamp;pressure;altitude;pressure_sealevel;temperature;humidity
50226;BME280;36113;50.742;6.432;2023-07-20T00:02:03;98635.81;;;15.05;81.48
50226;BME280;36113;50.742;6.432;2023-07-20T00:04:30;98666.63;;;15.25;81.68
50226;BME280;36113;50.742;6.432;2023-07-20T00:06:55;98661.16;;;15.25;81.01
50226;BME280;36113;50.742;6.432;2023-07-20T00:09:21;98656.59;;;15.20;81.29
50226;BME280;36113;50.742;6.432;2023-07-20T00:11:50;98659.66;;;15.19;81.34
50226;BME280;36113;50.742;6.432;2023-07-20T00:14:16;98651.22;;;15.15;81.29
50226;BME280;36113;50.742;6.432;2023-07-20T00:16:42;98644.66;;;15.02;81.48
50226;BME280;36113;50.742;6.432;2023-07-20T00:19:07;98663.78;;;15.16;81.10
50226;BME280;36113;50.742;6.432;2023-07-20T00:21:34;98657.41;;;15.07;81.86
50226;BME280;36113;50.742;6.432;2023-07-20T00:23:59;98660.38;;;15.10;81.72
50226;BME280;36113;50.742;6.432;2023-07-20T00:26:24;98656.31;;;15.08;81.78
50226;BME280;36113;50.742;6.432;2023-07-20T00:28:50;98655.19;;;15.09;81.47
50226;BME280;36113;50.742;6.432;2023-07-20T00:31:17;98608.84;;;14.85;81.76
50226;BME280;36113;50.742;6.432;2023-07-20T00:33:42;98600.44;;;14.67;81.55
50226;BME280;36113;50.742;6.432;2023-07-20T00:36:07;98621.00;;;14.79;82.19
50226;BME280;36113;50.742;6.432;2023-07-20T00:38:32;98596.63;;;14.68;81.66
50226;BME280;36113;50.742;6.432;2023-07-20T00:40:58;98650.63;;;14.90;81.85
50226;BME280;36113;50.742;6.432;2023-07-20T00:43:23;98640.28;;;14.87;82.15
50226;BME280;36113;50.742;6.432;2023-07-20T00:45:49;98639.88;;;14.80;81.75
50226;BME280;36113;50.742;6.432;2023-07-20T00:48:14;98632.06;;;14.74;82.27
50226;BME280;36113;50.742;6.432;2023-07-20T00:50:40;98632.78;;;14.79;81.59
50226;BME280;36113;50.742;6.432;2023-07-20T00:53:06;98634.22;;;14.77;81.34
50226;BME280;36113;50.742;6.432;2023-07-20T00:55:32;98612.31;;;14.63;81.65
50226;BME280;36113;50.742;6.432;2023-07-20T00:57:58;98634.50;;;14.75;81.67
50226;BME280;36113;50.742;6.432;2023-07-20T01:00:24;98637.94;;;14.67;82.00
50226;BME280;36113;50.742;6.432;2023-07-20T01:02:51;98648.88;;;14.67;81.65
50226;BME280;36113;50.742;6.432;2023-07-20T01:05:16;98631.78;;;14.61;82.04
50226;BME280;36113;50.742;6.432;2023-07-20T01:07:47;98628.19;;;14.61;81.43
50226;BME280;36113;50.742;6.432;2023-07-20T01:10:30;98638.06;;;14.62;82.02
50226;BME280;36113;50.742;6.432;2023-07-20T01:12:57;98570.19;;;14.17;81.64
50226;BME280;36113;50.742;6.432;2023-07-20T01:15:22;98635.31;;;14.62;81.25
50226;BME280;36113;50.742;6.432;2023-07-20T01:17:48;98625.56;;;14.56;81.44
50226;BME280;36113;50.742;6.432;2023-07-20T01:20:15;98607.59;;;14.36;81.58
50226;BME280;36113;50.742;6.432;2023-07-20T01:33:17;98636.25;;;14.52;81.33
50226;BME280;36113;50.742;6.432;2023-07-20T01:35:46;98621.09;;;14.46;81.59
50226;BME280;36113;50.742;6.432;2023-07-20T01:38:13;98629.69;;;14.39;81.96
50226;BME280;36113;50.742;6.432;2023-07-20T01:40:40;98632.94;;;14.41;81.63
50226;BME280;36113;50.742;6.432;2023-07-20T01:43:06;98637.88;;;14.39;81.74
50226;BME280;36113;50.742;6.432;2023-07-20T01:45:31;98635.22;;;14.34;81.53
50226;BME280;36113;50.742;6.432;2023-07-20T01:47:56;98603.38;;;14.11;81.32
50226;BME280;36113;50.742;6.432;2023-07-20T01:50:22;98629.56;;;14.31;81.85
50226;BME280;36113;50.742;6.432;2023-07-20T01:52:47;98623.88;;;14.27;81.89
50226;BME280;36113;50.742;6.432;2023-07-20T01:55:13;98596.22;;;14.15;81.27
50226;BME280;36113;50.742;6.432;2023-07-20T01:57:38;98591.22;;;14.03;81.63
50226;BME280;36113;50.742;6.432;2023-07-20T02:00:04;98615.75;;;14.22;81.41
50226;BME280;36113;50.742;6.432;2023-07-20T02:02:29;98624.25;;;14.20;81.46
50226;BME280;36113;50.742;6.432;2023-07-20T02:04:55;98627.00;;;14.20;81.27
50226;BME280;36113;50.742;6.432;2023-07-20T02:07:20;98607.72;;;14.12;80.92
50226;BME280;36113;50.742;6.432;2023-07-20T02:09:45;98613.94;;;14.17;81.39
50226;BME280;36113;50.742;6.432;2023-07-20T02:12:11;98632.06;;;14.27;81.02
50226;BME280;36113;50.742;6.432;2023-07-20T02:14:36;98587.06;;;14.05;81.10
50226;BME280;36113;50.742;6.432;2023-07-20T02:17:01;98620.91;;;14.23;80.91
50226;BME280;36113;50.742;6.432;2023-07-20T02:19:28;98619.53;;;14.26;80.84
50226;BME280;36113;50.742;6.432;2023-07-20T02:21:54;98630.03;;;14.19;81.02
50226;BME280;36113;50.742;6.432;2023-07-20T02:24:19;98629.50;;;14.17;80.86
50226;BME280;36113;50.742;6.432;2023-07-20T02:26:44;98620.31;;;14.13;80.92
50226;BME280;36113;50.742;6.432;2023-07-20T02:29:10;98621.09;;;14.13;80.99
50226;BME280;36113;50.742;6.432;2023-07-20T02:31:37;98622.72;;;14.14;80.65
50226;BME280;36113;50.742;6.432;2023-07-20T02:34:07;98576.69;;;13.89;80.66
50226;BME280;36113;50.742;6.432;2023-07-20T02:36:34;98619.69;;;14.16;80.42
50226;BME280;36113;50.742;6.432;2023-07-20T02:38:59;98608.03;;;14.10;80.14
50226;BME280;36113;50.742;6.432;2023-07-20T02:41:25;98598.97;;;13.96;80.48
50226;BME280;36113;50.742;6.432;2023-07-20T02:43:50;98591.47;;;13.87;80.54
50226;BME280;36113;50.742;6.432;2023-07-20T02:46:16;98588.72;;;13.87;80.28
50226;BME280;36113;50.742;6.432;2023-07-20T02:48:41;98575.41;;;13.67;80.77
50226;BME280;36113;50.742;6.432;2023-07-20T02:51:06;98612.28;;;13.83;81.15
50226;BME280;36113;50.742;6.432;2023-07-20T02:53:33;98622.84;;;13.90;80.79
50226;BME280;36113;50.742;6.432;2023-07-20T02:55:58;98595.94;;;13.64;81.55
50226;BME280;36113;50.742;6.432;2023-07-20T02:58:23;98611.66;;;13.73;81.01
50226;BME280;36113;50.742;6.432;2023-07-20T03:00:49;98623.31;;;13.78;81.14
50226;BME280;36113;50.742;6.432;2023-07-20T03:03:14;98617.84;;;13.78;80.87
50226;BME280;36113;50.742;6.432;2023-07-20T03:05:42;98616.09;;;13.69;80.89
50226;BME280;36113;50.742;6.432;2023-07-20T03:08:07;98626.84;;;13.79;80.88
50226;BME280;36113;50.742;6.432;2023-07-20T03:10:33;98631.72;;;13.82;80.88
50226;BME280;36113;50.742;6.432;2023-07-20T03:12:58;98646.34;;;13.91;80.78
50226;BME280;36113;50.742;6.432;2023-07-20T03:15:23;98640.06;;;13.91;81.02
50226;BME280;36113;50.742;6.432;2023-07-20T03:17:49;98652.00;;;13.95;81.08
50226;BME280;36113;50.742;6.432;2023-07-20T03:20:14;98620.06;;;13.76;81.15
50226;BME280;36113;50.742;6.432;2023-07-20T03:22:39;98605.88;;;13.74;80.87
50226;BME280;36113;50.742;6.432;2023-07-20T03:25:05;98651.41;;;13.98;80.79
50226;BME280;36113;50.742;6.432;2023-07-20T03:27:30;98657.13;;;14.01;81.00
50226;BME280;36113;50.742;6.432;2023-07-20T03:29:56;98638.22;;;13.86;81.17
50226;BME280;36113;50.742;6.432;2023-07-20T03:32:21;98620.28;;;13.80;81.05
50226;BME280;36113;50.742;6.432;2023-07-20T03:34:46;98649.63;;;14.07;80.50
50226;BME280;36113;50.742;6.432;2023-07-20T03:37:12;98620.81;;;13.82;80.47
50226;BME280;36113;50.742;6.432;2023-07-20T03:39:38;98652.06;;;14.08;80.90
50226;BME280;36113;50.742;6.432;2023-07-20T03:42:03;98629.78;;;14.01;81.07
50226;BME280;36113;50.742;6.432;2023-07-20T03:44:29;98649.91;;;14.05;80.86
50226;BME280;36113;50.742;6.432;2023-07-20T03:46:54;98644.13;;;13.93;80.93
50226;BME280;36113;50.742;6.432;2023-07-20T03:49:19;98639.88;;;14.01;80.76
50226;BME280;36113;50.742;6.432;2023-07-20T03:51:45;98633.63;;;14.00;80.40
50226;BME280;36113;50.742;6.432;2023-07-20T03:54:10;98628.16;;;14.00;80.39
50226;BME280;36113;50.742;6.432;2023-07-20T03:56:35;98634.81;;;13.94;80.72
50226;BME280;36113;50.742;6.432;2023-07-20T03:59:01;98646.84;;;13.93;80.62
50226;BME280;36113;50.742;6.432;2023-07-20T04:01:27;98639.16;;;13.95;80.57
50226;BME280;36113;50.742;6.432;2023-07-20T04:03:52;98636.44;;;13.95;80.52
50226;BME280;36113;50.742;6.432;2023-07-20T04:06:17;98655.06;;;13.93;80.36
50226;BME280;36113;50.742;6.432;2023-07-20T04:08:43;98640.97;;;13.86;80.79
50226;BME280;36113;50.742;6.432;2023-07-20T04:11:09;98647.66;;;13.94;80.76
50226;BME280;36113;50.742;6.432;2023-07-20T04:13:34;98636.59;;;13.85;80.73
50226;BME280;36113;50.742;6.432;2023-07-20T04:16:00;98638.00;;;13.82;80.66
50226;BME280;36113;50.742;6.432;2023-07-20T04:18:25;98649.72;;;13.83;80.71
50226;BME280;36113;50.742;6.432;2023-07-20T04:20:51;98635.13;;;13.74;80.92
50226;BME280;36113;50.742;6.432;2023-07-20T04:23:16;98659.09;;;13.96;80.47
50226;BME280;36113;50.742;6.432;2023-07-20T04:25:42;98659.38;;;13.94;80.93
50226;BME280;36113;50.742;6.432;2023-07-20T04:28:07;98665.88;;;13.98;80.67
50226;BME280;36113;50.742;6.432;2023-07-20T04:30:34;98668.34;;;14.00;80.95
50226;BME280;36113;50.742;6.432;2023-07-20T04:33:00;98630.59;;;13.83;80.73
50226;BME280;36113;50.742;6.432;2023-07-20T04:35:52;98623.81;;;13.80;80.76
50226;BME280;36113;50.742;6.432;2023-07-20T04:38:17;98649.13;;;14.05;80.73
50226;BME280;36113;50.742;6.432;2023-07-20T04:40:47;98601.72;;;13.77;80.43
50226;BME280;36113;50.742;6.432;2023-07-20T04:43:17;98643.34;;;14.06;80.45
50226;BME280;36113;50.742;6.432;2023-07-20T04:45:43;98643.50;;;14.15;80.16
50226;BME280;36113;50.742;6.432;2023-07-20T04:48:10;98663.84;;;14.23;80.39
50226;BME280;36113;50.742;6.432;2023-07-20T04:50:43;98663.78;;;14.28;80.26
50226;BME280;36113;50.742;6.432;2023-07-20T04:53:10;98663.47;;;14.29;80.28
50226;BME280;36113;50.742;6.432;2023-07-20T04:55:35;98672.31;;;14.40;79.98
50226;BME280;36113;50.742;6.432;2023-07-20T04:58:02;98664.34;;;14.44;79.92
50226;BME280;36113;50.742;6.432;2023-07-20T05:00:29;98646.53;;;14.27;79.94
50226;BME280;36113;50.742;6.432;2023-07-20T05:02:54;98667.97;;;14.39;80.07
50226;BME280;36113;50.742;6.432;2023-07-20T05:05:20;98647.16;;;14.24;79.84
50226;BME280;36113;50.742;6.432;2023-07-20T05:07:45;98666.22;;;14.43;79.83
50226;BME280;36113;50.742;6.432;2023-07-20T05:10:10;98676.34;;;14.62;79.17
50226;BME280;36113;50.742;6.432;2023-07-20T05:12:36;98660.22;;;14.74;78.74
50226;BME280;36113;50.742;6.432;2023-07-20T05:15:02;98661.19;;;14.83;78.45
50226;BME280;36113;50.742;6.432;2023-07-20T05:17:28;98623.69;;;14.70;78.18
50226;BME280;36113;50.742;6.432;2023-07-20T05:19:54;98663.59;;;14.99;78.02
50226;BME280;36113;50.742;6.432;2023-07-20T05:22:19;98662.38;;;15.05;77.79
50226;BME280;36113;50.742;6.432;2023-07-20T05:24:45;98633.06;;;15.05;77.13
50226;BME280;36113;50.742;6.432;2023-07-20T05:27:10;98673.94;;;15.29;77.26
50226;BME280;36113;50.742;6.432;2023-07-20T05:29:35;98648.78;;;15.27;76.76
50226;BME280;36113;50.742;6.432;2023-07-20T05:32:01;98641.91;;;15.30;76.39
50226;BME280;36113;50.742;6.432;2023-07-20T05:34:27;98667.19;;;15.49;75.96
50226;BME280;36113;50.742;6.432;2023-07-20T05:36:53;98640.44;;;15.46;75.94
50226;BME280;36113;50.742;6.432;2023-07-20T05:39:18;98668.16;;;15.67;75.68
50226;BME280;36113;50.742;6.432;2023-07-20T05:41:43;98662.19;;;15.79;75.26
50226;BME280;36113;50.742;6.432;2023-07-20T05:44:09;98632.38;;;15.64;75.28
50226;BME280;36113;50.742;6.432;2023-07-20T05:46:34;98667.63;;;15.93;74.52
50226;BME280;36113;50.742;6.432;2023-07-20T05:49:00;98664.09;;;15.92;74.31
50226;BME280;36113;50.742;6.432;2023-07-20T05:51:25;98670.00;;;15.86;74.11
50226;BME280;36113;50.742;6.432;2023-07-20T05:53:53;98684.94;;;16.02;73.95
50226;BME280;36113;50.742;6.432;2023-07-20T05:56:19;98680.34;;;16.11;74.04
50226;BME280;36113;50.742;6.432;2023-07-20T05:58:44;98695.50;;;16.31;73.77
50226;BME280;36113;50.742;6.432;2023-07-20T06:01:09;98657.97;;;16.18;73.27
50226;BME280;36113;50.742;6.432;2023-07-20T06:03:35;98686.25;;;16.50;72.82
50226;BME280;36113;50.742;6.432;2023-07-20T06:06:01;98689.16;;;16.53;72.00
50226;BME280;36113;50.742;6.432;2023-07-20T06:08:28;98703.41;;;16.55;71.58
50226;BME280;36113;50.742;6.432;2023-07-20T06:10:53;98697.09;;;16.55;71.54
50226;BME280;36113;50.742;6.432;2023-07-20T06:13:19;98697.69;;;16.74;71.18
50226;BME280;36113;50.742;6.432;2023-07-20T06:15:44;98711.72;;;16.95;70.87
50226;BME280;36113;50.742;6.432;2023-07-20T06:18:10;98684.66;;;16.80;70.44
50226;BME280;36113;50.742;6.432;2023-07-20T06:20:35;98702.50;;;16.91;69.71
50226;BME280;36113;50.742;6.432;2023-07-20T06:23:00;98708.84;;;17.01;69.19
50226;BME280;36113;50.742;6.432;2023-07-20T06:25:26;98719.19;;;17.04;70.13
50226;BME280;36113;50.742;6.432;2023-07-20T06:27:51;98708.28;;;17.21;69.03
50226;BME280;36113;50.742;6.432;2023-07-20T06:30:17;98681.19;;;16.97;68.87
50226;BME280;36113;50.742;6.432;2023-07-20T06:32:43;98712.75;;;17.08;69.31
50226;BME280;36113;50.742;6.432;2023-07-20T06:35:08;98704.81;;;16.98;69.78
50226;BME280;36113;50.742;6.432;2023-07-20T06:37:34;98717.13;;;17.09;69.59
50226;BME280;36113;50.742;6.432;2023-07-20T06:39:59;98728.41;;;17.08;69.76
50226;BME280;36113;50.742;6.432;2023-07-20T06:42:25;98724.22;;;16.79;70.31
50226;BME280;36113;50.742;6.432;2023-07-20T06:44:50;98691.25;;;16.48;71.02
50226;BME280;36113;50.742;6.432;2023-07-20T06:47:15;98701.59;;;16.51;70.98
50226;BME280;36113;50.742;6.432;2023-07-20T06:49:41;98716.22;;;16.69;71.40
50226;BME280;36113;50.742;6.432;2023-07-20T06:52:06;98697.91;;;16.55;71.59
50226;BME280;36113;50.742;6.432;2023-07-20T06:54:32;98721.91;;;16.72;70.67
50226;BME280;36113;50.742;6.432;2023-07-20T06:56:57;98718.38;;;16.72;70.66
50226;BME280;36113;50.742;6.432;2023-07-20T06:59:22;98726.84;;;16.84;71.00
50226;BME280;36113;50.742;6.432;2023-07-20T07:01:49;98689.41;;;16.66;70.35
50226;BME280;36113;50.742;6.432;2023-07-20T07:04:14;98736.81;;;17.03;70.41
50226;BME280;36113;50.742;6.432;2023-07-20T07:06:40;98731.13;;;16.99;68.89
50226;BME280;36113;50.742;6.432;2023-07-20T07:09:05;98734.41;;;17.10;68.77
50226;BME280;36113;50.742;6.432;2023-07-20T07:11:31;98697.63;;;17.28;68.57
50226;BME280;36113;50.742;6.432;2023-07-20T07:13:56;98689.91;;;17.39;66.75
50226;BME280;36113;50.742;6.432;2023-07-20T07:16:22;98720.50;;;17.64;66.79
50226;BME280;36113;50.742;6.432;2023-07-20T07:18:49;98745.16;;;17.86;65.90
50226;BME280;36113;50.742;6.432;2023-07-20T07:21:15;98750.94;;;17.67;65.75
50226;BME280;36113;50.742;6.432;2023-07-20T07:23:40;98748.69;;;17.78;66.22
50226;BME280;36113;50.742;6.432;2023-07-20T07:26:06;98718.25;;;17.66;64.76
50226;BME280;36113;50.742;6.432;2023-07-20T07:28:31;98752.13;;;17.92;64.20
50226;BME280;36113;50.742;6.432;2023-07-20T07:31:00;98721.22;;;17.95;64.43
50226;BME280;36113;50.742;6.432;2023-07-20T07:33:25;98692.41;;;17.67;65.20
50226;BME280;36113;50.742;6.432;2023-07-20T07:35:51;98739.34;;;17.96;65.50
50226;BME280;36113;50.742;6.432;2023-07-20T07:38:18;98750.06;;;18.07;64.89
50226;BME280;36113;50.742;6.432;2023-07-20T07:40:43;98751.34;;;18.01;64.11
50226;BME280;36113;50.742;6.432;2023-07-20T07:43:08;98756.69;;;18.32;63.44
50226;BME280;36113;50.742;6.432;2023-07-20T07:45:35;98748.03;;;18.77;62.98
50226;BME280;36113;50.742;6.432;2023-07-20T07:48:04;98758.53;;;19.10;62.06
50226;BME280;36113;50.742;6.432;2023-07-20T07:50:29;98750.63;;;19.38;61.12
50226;BME280;36113;50.742;6.432;2023-07-20T07:52:55;98750.56;;;19.55;59.04
50226;BME280;36113;50.742;6.432;2023-07-20T07:55:20;98725.44;;;19.48;59.15
50226;BME280;36113;50.742;6.432;2023-07-20T07:57:45;98750.78;;;19.80;58.09
50226;BME280;36113;50.742;6.432;2023-07-20T08:00:12;98752.66;;;19.88;56.48
50226;BME280;36113;50.742;6.432;2023-07-20T08:02:40;98748.38;;;19.99;55.59
50226;BME280;36113;50.742;6.432;2023-07-20T08:05:06;98756.25;;;20.31;54.84
50226;BME280;36113;50.742;6.432;2023-07-20T08:07:32;98743.66;;;20.42;53.05
50226;BME280;36113;50.742;6.432;2023-07-20T08:09:57;98751.44;;;20.40;52.46
50226;BME280;36113;50.742;6.432;2023-07-20T08:12:22;98758.19;;;20.51;54.06
50226;BME280;36113;50.742;6.432;2023-07-20T08:14:48;98749.34;;;20.37;54.86
50226;BME280;36113;50.742;6.432;2023-07-20T08:17:13;98717.94;;;19.87;54.44
50226;BME280;36113;50.742;6.432;2023-07-20T08:19:39;98735.97;;;19.84;55.38
50226;BME280;36113;50.742;6.432;2023-07-20T08:22:06;98750.56;;;19.85;55.42
50226;BME280;36113;50.742;6.432;2023-07-20T08:24:32;98764.72;;;19.75;55.09
50226;BME280;36113;50.742;6.432;2023-07-20T08:26:57;98757.88;;;19.81;54.86
50226;BME280;36113;50.742;6.432;2023-07-20T08:29:23;98764.41;;;19.68;54.04
50226;BME280;36113;50.742;6.432;2023-07-20T08:31:49;98762.41;;;19.85;54.04
50226;BME280;36113;50.742;6.432;2023-07-20T08:34:14;98759.72;;;19.98;54.55
50226;BME280;36113;50.742;6.432;2023-07-20T08:36:39;98750.81;;;19.71;53.36
50226;BME280;36113;50.742;6.432;2023-07-20T08:39:05;98762.28;;;19.82;54.47
50226;BME280;36113;50.742;6.432;2023-07-20T08:41:30;98745.03;;;19.85;55.00
50226;BME280;36113;50.742;6.432;2023-07-20T08:43:56;98708.59;;;19.79;53.95
50226;BME280;36113;50.742;6.432;2023-07-20T08:46:22;98750.72;;;20.31;53.76
50226;BME280;36113;50.742;6.432;2023-07-20T08:48:48;98763.09;;;20.45;53.32
50226;BME280;36113;50.742;6.432;2023-07-20T08:51:15;98731.13;;;20.23;53.69
50226;BME280;36113;50.742;6.432;2023-07-20T08:53:41;98698.56;;;19.96;52.01
50226;BME280;36113;50.742;6.432;2023-07-20T08:56:08;98761.69;;;20.39;51.38
50226;BME280;36113;50.742;6.432;2023-07-20T08:58:36;98765.44;;;20.56;52.07
50226;BME280;36113;50.742;6.432;2023-07-20T09:01:02;98739.66;;;20.52;51.37
50226;BME280;36113;50.742;6.432;2023-07-20T09:03:28;98758.34;;;20.88;49.78
50226;BME280;36113;50.742;6.432;2023-07-20T09:05:54;98756.88;;;20.70;50.26
50226;BME280;36113;50.742;6.432;2023-07-20T09:08:19;98756.59;;;20.83;50.71
50226;BME280;36113;50.742;6.432;2023-07-20T09:10:44;98757.59;;;21.12;49.94
50226;BME280;36113;50.742;6.432;2023-07-20T09:13:14;98751.50;;;21.19;47.23
50226;BME280;36113;50.742;6.432;2023-07-20T09:15:45;98752.75;;;21.34;47.90
50226;BME280;36113;50.742;6.432;2023-07-20T09:18:11;98734.28;;;21.01;47.03
50226;BME280;36113;50.742;6.432;2023-07-20T09:20:36;98729.75;;;20.51;46.77
50226;BME280;36113;50.742;6.432;2023-07-20T09:23:05;98731.84;;;20.54;47.92
50226;BME280;36113;50.742;6.432;2023-07-20T09:25:31;98740.75;;;20.59;47.18
50226;BME280;36113;50.742;6.432;2023-07-20T09:27:56;98757.41;;;20.84;47.79
50226;BME280;36113;50.742;6.432;2023-07-20T09:30:25;98763.16;;;20.91;47.61
50226;BME280;36113;50.742;6.432;2023-07-20T09:32:50;98748.25;;;21.04;47.09
50226;BME280;36113;50.742;6.432;2023-07-20T09:35:22;98753.91;;;21.20;46.83
50226;BME280;36113;50.742;6.432;2023-07-20T09:37:58;98770.16;;;21.34;45.19
50226;BME280;36113;50.742;6.432;2023-07-20T09:40:27;98745.53;;;21.54;45.75
50226;BME280;36113;50.742;6.432;2023-07-20T09:42:54;98747.25;;;21.83;45.32
50226;BME280;36113;50.742;6.432;2023-07-20T09:45:41;98741.09;;;22.02;45.41
50226;BME280;36113;50.742;6.432;2023-07-20T09:48:10;98760.00;;;22.12;44.88
50226;BME280;36113;50.742;6.432;2023-07-20T09:50:40;98743.28;;;21.96;45.21
50226;BME280;36113;50.742;6.432;2023-07-20T09:53:07;98757.00;;;22.05;44.51
50226;BME280;36113;50.742;6.432;2023-07-20T09:55:34;98753.31;;;22.13;44.97
50226;BME280;36113;50.742;6.432;2023-07-20T09:58:00;98731.69;;;21.90;44.85
50226;BME280;36113;50.742;6.432;2023-07-20T10:00:25;98748.13;;;22.24;44.47
50226;BME280;36113;50.742;6.432;2023-07-20T10:02:52;98757.19;;;22.37;43.51
50226;BME280;36113;50.742;6.432;2023-07-20T10:05:18;98722.47;;;22.27;43.39
50226;BME280;36113;50.742;6.432;2023-07-20T10:07:47;98745.78;;;21.61;44.41
50226;BME280;36113;50.742;6.432;2023-07-20T10:10:18;98747.50;;;21.65;44.51
50226;BME280;36113;50.742;6.432;2023-07-20T10:12:52;98730.28;;;21.84;44.66
50226;BME280;36113;50.742;6.432;2023-07-20T10:15:20;98762.88;;;22.28;44.09
50226;BME280;36113;50.742;6.432;2023-07-20T10:18:10;98755.34;;;22.41;43.22
50226;BME280;36113;50.742;6.432;2023-07-20T10:20:39;98740.31;;;22.42;43.28
50226;BME280;36113;50.742;6.432;2023-07-20T10:23:06;98739.94;;;22.27;43.94
50226;BME280;36113;50.742;6.432;2023-07-20T10:25:33;98752.31;;;22.46;44.17
50226;BME280;36113;50.742;6.432;2023-07-20T10:28:04;98746.44;;;22.47;44.29
50226;BME280;36113;50.742;6.432;2023-07-20T10:30:34;98724.00;;;22.52;44.69
50226;BME280;36113;50.742;6.432;2023-07-20T10:33:02;98747.47;;;22.71;42.50
50226;BME280;36113;50.742;6.432;2023-07-20T10:35:28;98749.94;;;22.60;42.82
50226;BME280;36113;50.742;6.432;2023-07-20T10:37:54;98754.38;;;22.49;42.71
50226;BME280;36113;50.742;6.432;2023-07-20T10:40:38;98733.19;;;22.41;42.32
50226;BME280;36113;50.742;6.432;2023-07-20T10:43:08;98717.06;;;22.30;43.15
50226;BME280;36113;50.742;6.432;2023-07-20T10:45:34;98738.47;;;22.46;43.48
50226;BME280;36113;50.742;6.432;2023-07-20T10:48:02;98717.25;;;22.38;44.20
50226;BME280;36113;50.742;6.432;2023-07-20T10:50:28;98724.50;;;22.70;43.29
50226;BME280;36113;50.742;6.432;2023-07-20T10:53:13;98728.69;;;22.80;42.66
50226;BME280;36113;50.742;6.432;2023-07-20T10:55:40;98694.34;;;22.53;42.99
50226;BME280;36113;50.742;6.432;2023-07-20T10:58:10;98727.00;;;22.76;43.25
50226;BME280;36113;50.742;6.432;2023-07-20T11:00:36;98737.56;;;22.70;43.78
50226;BME280;36113;50.742;6.432;2023-07-20T11:03:02;98710.47;;;22.35;43.34
50226;BME280;36113;50.742;6.432;2023-07-20T11:05:38;98739.59;;;22.45;43.37
50226;BME280;36113;50.742;6.432;2023-07-20T11:08:13;98706.44;;;22.33;44.27
50226;BME280;36113;50.742;6.432;2023-07-20T11:11:26;98732.94;;;22.46;42.97
50226;BME280;36113;50.742;6.432;2023-07-20T11:14:01;98731.84;;;22.79;43.27
50226;BME280;36113;50.742;6.432;2023-07-20T11:18:58;98726.78;;;22.97;41.67
50226;BME280;36113;50.742;6.432;2023-07-20T11:21:24;98730.50;;;23.17;41.79
50226;BME280;36113;50.742;6.432;2023-07-20T11:23:51;98735.06;;;23.41;41.66
50226;BME280;36113;50.742;6.432;2023-07-20T11:26:17;98726.38;;;23.10;41.97
50226;BME280;36113;50.742;6.432;2023-07-20T11:28:48;98716.06;;;23.11;41.85
50226;BME280;36113;50.742;6.432;2023-07-20T11:31:14;98726.47;;;23.14;42.85
50226;BME280;36113;50.742;6.432;2023-07-20T11:33:42;98725.00;;;23.20;42.44
50226;BME280;36113;50.742;6.432;2023-07-20T11:36:08;98700.16;;;23.24;42.04
50226;BME280;36113;50.742;6.432;2023-07-20T11:38:34;98713.22;;;23.39;41.23
50226;BME280;36113;50.742;6.432;2023-07-20T11:40:59;98730.75;;;23.27;41.44
50226;BME280;36113;50.742;6.432;2023-07-20T11:43:25;98695.09;;;22.66;41.04
50226;BME280;36113;50.742;6.432;2023-07-20T11:45:51;98744.84;;;22.62;41.89
50226;BME280;36113;50.742;6.432;2023-07-20T11:48:17;98721.56;;;22.79;42.36
50226;BME280;36113;50.742;6.432;2023-07-20T11:50:42;98703.84;;;23.12;41.19
50226;BME280;36113;50.742;6.432;2023-07-20T11:53:08;98721.00;;;23.49;39.67
50226;BME280;36113;50.742;6.432;2023-07-20T11:55:34;98709.66;;;23.23;38.22
50226;BME280;36113;50.742;6.432;2023-07-20T11:58:06;98693.53;;;23.28;39.67
50226;BME280;36113;50.742;6.432;2023-07-20T12:00:36;98700.28;;;23.63;38.50
50226;BME280;36113;50.742;6.432;2023-07-20T12:03:05;98709.59;;;24.06;38.61
50226;BME280;36113;50.742;6.432;2023-07-20T12:05:32;98671.16;;;24.08;37.69
50226;BME280;36113;50.742;6.432;2023-07-20T12:07:57;98690.41;;;23.81;37.74
50226;BME280;36113;50.742;6.432;2023-07-20T12:10:26;98669.03;;;23.14;38.30
50226;BME280;36113;50.742;6.432;2023-07-20T12:12:52;98674.84;;;23.25;39.26
50226;BME280;36113;50.742;6.432;2023-07-20T12:15:26;98696.84;;;23.34;39.60
50226;BME280;36113;50.742;6.432;2023-07-20T12:17:56;98670.75;;;23.54;39.04
50226;BME280;36113;50.742;6.432;2023-07-20T12:20:30;98687.38;;;24.06;37.33
50226;BME280;36113;50.742;6.432;2023-07-20T12:23:08;98691.97;;;24.37;36.18
50226;BME280;36113;50.742;6.432;2023-07-20T12:25:44;98696.75;;;24.56;35.98
50226;BME280;36113;50.742;6.432;2023-07-20T12:28:12;98691.69;;;24.23;35.88
50226;BME280;36113;50.742;6.432;2023-07-20T12:30:39;98680.50;;;24.19;36.81
50226;BME280;36113;50.742;6.432;2023-07-20T12:33:05;98664.72;;;24.23;36.48
50226;BME280;36113;50.742;6.432;2023-07-20T12:35:31;98656.69;;;24.18;35.56
50226;BME280;36113;50.742;6.432;2023-07-20T12:37:56;98654.84;;;24.45;35.77
50226;BME280;36113;50.742;6.432;2023-07-20T12:40:21;98653.53;;;24.82;36.39
50226;BME280;36113;50.742;6.432;2023-07-20T12:42:47;98674.56;;;25.02;35.04
50226;BME280;36113;50.742;6.432;2023-07-20T12:45:13;98677.75;;;25.27;36.01
50226;BME280;36113;50.742;6.432;2023-07-20T12:47:39;98660.16;;;25.19;34.56
50226;BME280;36113;50.742;6.432;2023-07-20T12:50:04;98679.97;;;24.72;35.78
50226;BME280;36113;50.742;6.432;2023-07-20T12:52:31;98668.53;;;24.15;34.96
50226;BME280;36113;50.742;6.432;2023-07-20T12:54:56;98637.34;;;23.16;35.50
50226;BME280;36113;50.742;6.432;2023-07-20T12:57:22;98669.00;;;23.30;36.90
50226;BME280;36113;50.742;6.432;2023-07-20T12:59:47;98660.41;;;23.87;35.65
50226;BME280;36113;50.742;6.432;2023-07-20T13:02:13;98642.38;;;23.96;34.88
50226;BME280;36113;50.742;6.432;2023-07-20T13:04:38;98653.03;;;23.94;35.88
50226;BME280;36113;50.742;6.432;2023-07-20T13:07:03;98663.41;;;23.78;35.42
50226;BME280;36113;50.742;6.432;2023-07-20T13:09:29;98665.47;;;24.01;35.44
50226;BME280;36113;50.742;6.432;2023-07-20T13:11:54;98642.06;;;24.02;35.38